Time;durP1;ratioP1;P1;durP2;ratioP2;P2;SDS_P1;SDS_P2;PMS_P1;PMS_P2;Temp;Humidity;BMP_temperature;BMP_pressure;BME280_temperature;BME280_humidity;BME280_pressure;Samples;Min_cycle;Max_cycle;Signal;HPM_P1;HPM_P2
2022/05/26 00:01:12;;;;;;;48.30;30.80;;;;;;;9.54;96.90;98822.19;219675;1275;22551;-68
2022/05/26 00:12:24;;;;;;;46.80;29.20;;;;;;;9.42;96.63;98801.96;219612;1277;739063;-66
2022/05/26 00:17:29;;;;;;;47.40;30.40;;;;;;;9.38;96.73;98806.39;219708;1274;25255;-69
2022/05/26 00:22:34;;;;;;;45.00;29.20;;;;;;;9.35;97.06;98809.40;220064;1275;25295;-69
2022/05/26 00:27:40;;;;;;;48.40;29.90;;;;;;;9.34;97.13;98814.59;220272;1274;23076;-68
2022/05/26 00:32:49;;;;;;;42.10;27.60;;;;;;;9.31;97.27;98820.16;219874;1274;25794;-68
2022/05/26 00:38:16;;;;;;;;;;;;;;;;;;;;;
2022/05/26 00:44:05;;;;;;;47.50;29.80;;;;;;;9.30;98.00;98822.80;219984;1273;22579;-68
2022/05/26 00:49:36;;;;;;;50.00;30.40;;;;;;;9.32;98.12;98824.12;219850;1275;22533;-67
2022/05/26 00:54:39;;;;;;;45.00;29.10;;;;;;;9.31;97.95;98820.92;220086;1275;24232;-70
2022/05/26 00:59:57;;;;;;;44.00;28.40;;;;;;;9.29;97.96;98822.16;220004;1274;22552;-69
2022/05/26 01:05:07;;;;;;;46.40;29.50;;;;;;;9.31;98.43;98825.36;220212;1274;23151;-68
2022/05/26 01:10:15;;;;;;;45.10;29.70;;;;;;;9.36;98.66;98821.31;220263;1274;22704;-68
2022/05/26 01:15:24;;;;;;;49.90;29.90;;;;;;;9.44;98.90;98826.27;219977;1274;22541;-68
2022/05/26 01:20:41;;;;;;;44.50;27.40;;;;;;;9.53;99.01;98824.34;220133;1274;24231;-68
2022/05/26 01:26:21;;;;;;;47.10;28.70;;;;;;;9.60;99.11;98822.95;219944;1274;24236;-68
2022/05/26 01:31:56;;;;;;;48.90;29.70;;;;;;;9.66;99.13;98819.20;219656;1274;25256;-68
2022/05/26 01:37:11;;;;;;;47.80;27.70;;;;;;;9.68;98.80;98817.90;220036;1274;25319;-69
2022/05/26 01:42:20;;;;;;;41.50;26.50;;;;;;;9.65;98.52;98809.73;219965;1274;24117;-68
2022/05/26 01:47:43;;;;;;;44.90;26.70;;;;;;;9.62;98.49;98812.70;220130;1274;24922;-68
2022/05/26 01:53:09;;;;;;;41.00;27.00;;;;;;;9.60;98.56;98814.71;219830;1274;22662;-68
2022/05/26 01:58:28;;;;;;;42.70;27.10;;;;;;;9.58;98.75;98809.64;219822;1274;22535;-66
2022/05/26 02:03:33;;;;;;;43.30;27.50;;;;;;;9.58;98.75;98812.42;219822;1274;26449;-68
2022/05/26 02:09:00;;;;;;;47.40;28.60;;;;;;;9.57;98.84;98812.48;220020;1274;22582;-68
2022/05/26 02:14:28;;;;;;;42.50;26.90;;;;;;;9.55;98.81;98814.90;219976;1274;24334;-69
2022/05/26 02:19:40;;;;;;;46.80;28.50;;;;;;;9.55;98.78;98812.23;220081;1274;23507;-69
2022/05/26 02:25:06;;;;;;;41.80;27.30;;;;;;;9.54;99.05;98810.53;220127;1273;22800;-67
2022/05/26 02:30:16;;;;;;;42.60;25.60;;;;;;;9.55;99.13;98811.33;219647;1275;26370;-68
2022/05/26 02:35:35;;;;;;;38.10;24.70;;;;;;;9.56;99.32;98823.46;219994;1274;23537;-67
2022/05/26 02:40:38;;;;;;;40.20;25.10;;;;;;;9.56;99.52;98819.77;220312;1274;22711;-67
2022/05/26 02:46:05;;;;;;;38.70;24.40;;;;;;;9.55;99.28;98820.99;219816;1275;24829;-69
2022/05/26 02:51:40;;;;;;;35.50;23.00;;;;;;;9.55;99.28;98820.52;220118;1273;26403;-68
2022/05/26 02:57:35;;;;;;;38.60;24.00;;;;;;;9.55;99.26;98821.75;220159;1274;22566;-69
2022/05/26 03:03:04;;;;;;;39.30;23.40;;;;;;;9.56;99.23;98819.77;219526;1275;22934;-68
2022/05/26 03:08:15;;;;;;;32.30;21.80;;;;;;;9.59;99.18;98821.99;219603;1274;24301;-68
2022/05/26 03:13:34;;;;;;;33.10;21.40;;;;;;;9.61;99.24;98818.86;220015;1273;22697;-69
2022/05/26 03:18:58;;;;;;;32.40;21.30;;;;;;;9.65;99.33;98821.55;219608;1273;23293;-68
2022/05/26 03:25:20;;;;;;;33.40;21.30;;;;;;;9.68;99.24;98825.27;220142;1274;26583;-68
2022/05/26 03:31:45;;;;;;;31.70;20.60;;;;;;;9.75;99.29;98822.07;220003;1273;22946;-68
2022/05/26 03:44:10;;;;;;;31.00;21.50;;;;;;;9.86;98.99;98832.29;220113;1273;24429;-68
2022/05/26 03:50:04;;;;;;;31.70;20.40;;;;;;;9.85;98.86;98832.52;219976;1274;24025;-68
2022/05/26 03:55:48;;;;;;;;;;;;;;;9.89;99.13;98841.20;219971;1274;22679;-68
2022/05/26 04:01:38;;;;;;;32.90;21.40;;;;;;;10.10;99.93;98844.42;219754;1274;22954;-68
2022/05/26 04:07:28;;;;;;;36.00;22.90;;;;;;;10.35;99.99;98837.42;220058;1274;22574;-68
2022/05/26 04:12:29;;;;;;;33.80;21.70;;;;;;;10.53;99.89;98842.27;220039;1274;22818;-68
2022/05/26 04:17:36;;;;;;;38.30;22.70;;;;;;;10.64;99.67;98846.81;219687;1274;22558;-68
2022/05/26 04:22:39;;;;;;;35.10;22.60;;;;;;;10.74;99.76;98846.15;220060;1274;23424;-68
2022/05/26 04:27:46;;;;;;;32.10;21.60;;;;;;;10.86;99.64;98845.93;220027;1274;23327;-68
2022/05/26 04:32:51;;;;;;;37.20;23.40;;;;;;;10.97;99.42;98845.65;220093;1274;22547;-67
2022/05/26 04:38:16;;;;;;;;;;;;;;;;;;;;;
2022/05/26 04:43:21;;;;;;;33.70;21.30;;;;;;;11.26;99.81;98857.31;220328;1274;22978;-68
2022/05/26 04:48:26;;;;;;;26.30;17.40;;;;;;;11.42;99.95;98857.72;220334;1273;23867;-69
2022/05/26 04:54:02;;;;;;;27.10;18.70;;;;;;;11.59;99.75;98859.16;220132;1274;22994;-68
2022/05/26 04:59:47;;;;;;;25.50;17.20;;;;;;;11.76;99.81;98860.08;219885;1274;23844;-67
2022/05/26 05:05:07;;;;;;;22.50;16.50;;;;;;;11.94;99.59;98862.26;220002;1274;22730;-68
2022/05/26 05:10:16;;;;;;;25.10;17.20;;;;;;;12.10;99.29;98860.92;219584;1275;24372;-67
2022/05/26 05:15:25;;;;;;;22.10;15.80;;;;;;;12.27;98.78;98860.84;219717;1274;22695;-68
2022/05/26 05:20:38;;;;;;;18.60;14.70;;;;;;;12.42;98.44;98871.13;220027;1273;22619;-68
2022/05/26 05:25:59;;;;;;;;;;;;;;;12.60;97.79;98866.33;219619;1274;24266;-68
2022/05/26 05:31:06;;;;;;;17.70;13.30;;;;;;;12.76;97.44;98865.57;219882;1274;24878;-68
2022/05/26 05:36:27;;;;;;;16.70;12.80;;;;;;;12.96;96.92;98874.62;219782;1273;22538;-68
2022/05/26 05:41:35;;;;;;;16.80;12.00;;;;;;;13.16;96.39;98872.05;219617;1275;22617;-69
2022/05/26 05:46:53;;;;;;;13.30;10.70;;;;;;;13.38;95.37;98873.19;219719;1273;22557;-69
2022/05/26 05:52:07;;;;;;;13.20;10.00;;;;;;;13.62;94.71;98875.71;219625;1273;24208;-68
2022/05/26 05:57:09;;;;;;;11.90;9.20;;;;;;;13.86;93.94;98879.11;219890;1273;25398;-68
2022/05/26 06:02:14;;;;;;;11.20;8.30;;;;;;;14.13;93.07;98879.80;219617;1274;25399;-68
2022/05/26 06:07:45;;;;;;;7.60;6.90;;;;;;;14.31;91.22;98882.17;219195;1274;25334;-69
2022/05/26 06:12:47;;;;;;;8.70;6.40;;;;;;;14.41;90.30;98879.10;219532;1274;22547;-69
2022/05/26 06:17:53;;;;;;;6.50;5.20;;;;;;;14.57;89.37;98885.80;219732;1274;22939;-69
2022/05/26 06:23:07;;;;;;;6.40;4.70;;;;;;;14.73;88.38;98890.89;219904;1274;24979;-68
2022/05/26 06:38:56;;;;;;;4.20;3.50;;;;;;;15.76;87.80;98883.25;219716;1274;26458;-69
2022/05/26 06:43:59;;;;;;;6.20;3.90;;;;;;;16.16;83.85;98884.95;219743;1273;25477;-69
2022/05/26 06:49:19;;;;;;;4.20;3.10;;;;;;;16.46;83.77;98884.69;219475;1273;25454;-69
2022/05/26 06:55:15;;;;;;;3.40;3.10;;;;;;;16.82;83.09;98892.53;219746;1273;22570;-69
2022/05/26 07:00:47;;;;;;;3.10;2.90;;;;;;;17.24;82.01;98894.52;219804;1272;22725;-68
2022/05/26 07:05:57;;;;;;;3.40;3.10;;;;;;;17.74;80.43;98892.70;219830;1273;22667;-69
2022/05/26 07:11:15;;;;;;;3.20;2.90;;;;;;;18.07;79.82;98895.48;220020;1274;24186;-68
2022/05/26 07:16:29;;;;;;;2.70;2.30;;;;;;;18.35;78.01;98890.00;219599;1274;22535;-68
2022/05/26 07:21:34;;;;;;;2.10;1.90;;;;;;;18.72;77.26;98898.23;219499;1273;24316;-68
2022/05/26 07:26:50;;;;;;;2.40;1.90;;;;;;;18.92;74.66;98906.63;219429;1275;23478;-67
2022/05/26 07:32:03;;;;;;;2.10;1.80;;;;;;;19.10;73.78;98903.35;219794;1273;22546;-67
2022/05/26 07:42:33;;;;;;;1.80;1.70;;;;;;;19.44;71.91;98903.11;220026;1274;22712;-67
2022/05/26 07:47:40;;;;;;;3.20;1.90;;;;;;;19.55;69.03;98908.23;220274;1273;22530;-68
2022/05/26 07:52:51;;;;;;;1.40;1.30;;;;;;;19.59;66.36;98911.69;220391;1273;22554;-67
2022/05/26 07:57:58;;;;;;;3.00;1.40;;;;;;;19.55;65.84;98915.77;219542;1276;22545;-68
2022/05/26 08:03:13;;;;;;;1.60;1.40;;;;;;;19.65;67.24;98916.52;220017;1273;22610;-67
2022/05/26 08:08:45;;;;;;;2.10;1.40;;;;;;;19.98;66.52;98914.92;219982;1273;22730;-68
2022/05/26 08:14:06;;;;;;;2.60;1.80;;;;;;;20.10;66.03;98915.09;220075;1274;24285;-68
2022/05/26 08:19:23;;;;;;;3.70;2.20;;;;;;;20.22;64.58;98911.83;219953;1274;23945;-68
2022/05/26 08:24:52;;;;;;;2.70;2.00;;;;;;;20.26;64.18;98910.08;219861;1274;22596;-68
2022/05/26 08:30:05;;;;;;;1.60;1.50;;;;;;;20.21;62.77;98914.85;220080;1273;23087;-68
2022/05/26 08:35:09;;;;;;;2.90;1.80;;;;;;;20.08;61.98;98914.13;220243;1274;22565;-67
2022/05/26 08:40:44;;;;;;;2.00;1.70;;;;;;;20.08;62.75;98914.34;219919;1273;22636;-67
2022/05/26 08:46:07;;;;;;;1.70;1.60;;;;;;;19.93;62.44;98917.53;219956;1273;22579;-66
2022/05/26 08:51:21;;;;;;;;;;;;;;;19.81;62.13;98921.32;219479;1274;22589;-67
2022/05/26 08:56:27;;;;;;;1.10;1.00;;;;;;;19.73;60.91;98921.23;220234;1273;25373;-66
2022/05/26 09:01:35;;;;;;;0.80;0.80;;;;;;;19.87;60.21;98922.10;219672;1274;24253;-66
2022/05/26 09:17:44;;;;;;;1.00;0.90;;;;;;;20.40;55.41;98919.91;219569;1273;25213;-67
2022/05/26 09:22:49;;;;;;;0.80;0.70;;;;;;;20.11;54.79;98923.50;219840;1273;22499;-67
2022/05/26 09:28:49;;;;;;;1.30;1.00;;;;;;;20.11;55.30;98917.38;219973;1274;24024;-67
2022/05/26 09:34:38;;;;;;;2.20;0.90;;;;;;;20.88;52.74;98914.61;219007;1275;22557;-66
2022/05/26 09:40:18;;;;;;;1.70;0.80;;;;;;;21.24;50.91;98914.09;219493;1276;23466;-67
2022/05/26 09:45:30;;;;;;;2.00;1.20;;;;;;;21.32;51.08;98911.61;220642;1273;25731;-67
2022/05/26 09:50:52;;;;;;;1.50;1.00;;;;;;;21.42;51.34;98916.73;219653;1274;23032;-68
2022/05/26 09:55:58;;;;;;;2.10;1.40;;;;;;;21.08;50.40;98924.02;220040;1274;23243;-67
2022/05/26 10:01:04;;;;;;;1.20;0.80;;;;;;;20.76;50.39;98924.70;219773;1274;22537;-67
2022/05/26 10:06:26;;;;;;;2.30;1.40;;;;;;;20.74;51.66;98927.74;219925;1274;22564;-68
2022/05/26 10:11:56;;;;;;;3.10;1.20;;;;;;;21.04;50.80;98919.52;220241;1274;22559;-67
2022/05/26 10:17:19;;;;;;;3.40;2.60;;;;;;;21.22;49.60;98921.05;220104;1273;22547;-67
2022/05/26 10:22:39;;;;;;;1.80;1.10;;;;;;;20.98;49.87;98923.02;220027;1274;22897;-68
2022/05/26 10:28:33;;;;;;;1.40;1.00;;;;;;;20.81;50.26;98921.14;220025;1274;23932;-71
2022/05/26 10:33:49;;;;;;;1.30;1.10;;;;;;;20.76;50.64;98928.27;219990;1274;25217;-70
2022/05/26 10:39:06;;;;;;;2.00;1.20;;;;;;;20.95;51.21;98934.54;219943;1274;25596;-69
2022/05/26 10:44:31;;;;;;;1.60;0.90;;;;;;;21.08;51.14;98930.56;220518;1274;24227;-68
2022/05/26 10:50:25;;;;;;;1.60;1.30;;;;;;;20.76;51.09;98933.33;219798;1274;25430;-68
2022/05/26 10:56:36;;;;;;;1.10;0.90;;;;;;;20.45;51.86;98934.48;219693;1274;25491;-68
2022/05/26 11:01:59;;;;;;;1.10;1.10;;;;;;;20.46;52.47;98935.21;219388;1275;25425;-66
2022/05/26 11:07:11;;;;;;;2.60;1.60;;;;;;;20.57;53.29;98932.20;220172;1274;25371;-68
2022/05/26 11:12:20;;;;;;;1.70;1.30;;;;;;;20.68;52.09;98932.89;219916;1274;25210;-68
2022/05/26 11:17:39;;;;;;;1.60;1.40;;;;;;;20.74;51.25;98928.84;219901;1274;24487;-68
2022/05/26 11:22:51;;;;;;;1.20;1.20;;;;;;;20.96;51.34;98914.10;220179;1274;22579;-67
2022/05/26 11:27:57;;;;;;;1.50;1.40;;;;;;;21.24;50.73;98926.31;219661;1274;22540;-66
2022/05/26 11:38:38;;;;;;;2.00;1.00;;;;;;;21.32;48.16;98915.58;219917;1274;25022;-68
2022/05/26 11:44:05;;;;;;;1.10;1.00;;;;;;;21.75;47.97;98908.39;220197;1274;24246;-68
2022/05/26 11:49:28;;;;;;;7.50;1.50;;;;;;;21.93;47.73;98915.57;220166;1274;25396;-67
2022/05/26 11:54:52;;;;;;;1.40;1.30;;;;;;;21.66;47.00;98915.60;219888;1273;23813;-68
2022/05/26 12:00:29;;;;;;;2.10;1.00;;;;;;;21.17;47.53;98913.86;219822;1274;22581;-68
2022/05/26 12:06:15;;;;;;;2.30;1.20;;;;;;;21.03;48.96;98913.80;219671;1274;25488;-68
2022/05/26 12:12:06;;;;;;;1.80;0.90;;;;;;;21.13;48.95;98920.08;219348;1273;471695;-67
2022/05/26 12:17:27;;;;;;;1.50;0.90;;;;;;;21.02;48.67;98918.59;219686;1274;22944;-68
2022/05/26 12:22:37;;;;;;;1.70;1.20;;;;;;;21.14;49.33;98923.68;219482;1273;24909;-67
2022/05/26 12:27:48;;;;;;;1.60;1.50;;;;;;;21.01;49.56;98920.54;219516;1274;22703;-68
2022/05/26 12:33:03;;;;;;;1.50;1.40;;;;;;;20.78;49.34;98927.30;219833;1274;24295;-67
2022/05/26 12:38:15;;;;;;;1.50;1.20;;;;;;;20.57;50.29;98915.33;219668;1274;22649;-68
2022/05/26 12:43:43;;;;;;;5.50;4.10;;;;;;;20.56;51.03;98912.66;219945;1274;22561;-67
2022/05/26 12:49:11;;;;;;;2.10;1.70;;;;;;;20.80;50.51;98910.08;219832;1274;22714;-68
2022/05/26 12:54:19;;;;;;;2.50;1.40;;;;;;;21.22;50.59;98898.48;219596;1277;24275;-67
2022/05/26 12:59:32;;;;;;;2.20;2.00;;;;;;;21.52;49.08;98906.35;219870;1274;22700;-68
2022/05/26 13:04:51;;;;;;;3.30;1.90;;;;;;;21.80;48.48;98903.10;220086;1274;22579;-68
2022/05/26 13:10:14;;;;;;;1.40;0.90;;;;;;;21.90;46.20;98904.84;219619;1273;22629;-67
2022/05/26 13:15:28;;;;;;;1.50;1.40;;;;;;;21.93;46.46;98903.89;219807;1274;25259;-67
2022/05/26 13:20:40;;;;;;;1.90;1.30;;;;;;;21.89;46.43;98897.74;219683;1273;25249;-68
2022/05/26 13:26:00;;;;;;;1.90;1.20;;;;;;;21.80;46.58;98901.70;219582;1273;25429;-67
2022/05/26 13:36:44;;;;;;;1.80;1.00;;;;;;;22.12;47.46;98893.16;219509;1274;22583;-67
2022/05/26 13:41:52;;;;;;;1.40;1.30;;;;;;;22.39;46.71;98896.29;219967;1273;25358;-68
2022/05/26 13:46:55;;;;;;;2.50;2.20;;;;;;;22.38;46.42;98891.45;219784;1274;22621;-68
2022/05/26 13:52:08;;;;;;;1.50;1.40;;;;;;;22.26;46.99;98887.95;220070;1274;25414;-67
2022/05/26 13:57:38;;;;;;;2.30;1.80;;;;;;;22.39;47.80;98878.30;219984;1274;23947;-67
2022/05/26 14:03:07;;;;;;;1.80;1.00;;;;;;;22.72;46.93;98884.25;220031;1274;22540;-68
2022/05/26 14:08:13;;;;;;;1.20;0.80;;;;;;;22.70;46.01;98876.66;219898;1277;22536;-66
2022/05/26 14:13:21;;;;;;;1.20;1.10;;;;;;;22.22;44.85;98873.38;220061;1274;22556;-67
2022/05/26 14:18:41;;;;;;;0.80;0.60;;;;;;;21.70;45.74;98872.98;220007;1277;24467;-66
2022/05/26 14:23:57;;;;;;;1.10;0.70;;;;;;;21.19;45.83;98876.48;220339;1274;26485;-67
2022/05/26 14:29:28;;;;;;;1.00;1.00;;;;;;;20.84;47.11;98886.39;220024;1274;22544;-67
2022/05/26 14:34:56;;;;;;;0.40;0.40;;;;;;;20.79;48.04;98891.16;219917;1274;25245;-67
2022/05/26 14:40:01;;;;;;;0.70;0.50;;;;;;;20.63;47.34;98895.04;220172;1274;22560;-66
2022/05/26 14:45:11;;;;;;;0.70;0.70;;;;;;;20.53;47.41;98898.30;219978;1274;22844;-68
2022/05/26 14:50:21;;;;;;;;;;;;;;;20.51;46.86;98892.73;219972;1277;22943;-67
2022/05/26 14:55:41;;;;;;;0.50;0.50;;;;;;;20.69;46.60;98887.34;219834;1274;22603;-67
2022/05/26 15:01:04;;;;;;;1.60;0.50;;;;;;;20.96;47.11;98885.48;220078;1274;22581;-67
2022/05/26 15:06:07;;;;;;;0.60;0.50;;;;;;;21.44;47.14;98882.35;219409;1274;22583;-68
2022/05/26 15:11:17;;;;;;;1.60;0.80;;;;;;;21.82;46.53;98873.14;219552;1277;25532;-66
2022/05/26 15:16:25;;;;;;;0.90;0.40;;;;;;;21.93;46.71;98868.98;219676;1273;25324;-67
2022/05/26 15:21:32;;;;;;;0.80;0.80;;;;;;;21.97;46.38;98872.09;219895;1274;24191;-67
2022/05/26 15:26:37;;;;;;;0.70;0.50;;;;;;;22.05;46.13;98871.23;219711;1275;23031;-66
2022/05/26 15:32:01;;;;;;;0.50;0.50;;;;;;;22.14;45.42;98873.63;220441;1274;26489;-67
2022/05/26 15:37:31;;;;;;;3.60;1.60;;;;;;;22.13;44.33;98867.38;219935;1277;22540;-67
2022/05/26 15:42:55;;;;;;;0.80;0.50;;;;;;;21.89;45.08;98865.16;220048;1277;22577;-68
2022/05/26 15:48:32;;;;;;;1.10;0.50;;;;;;;21.57;45.06;98864.95;219295;1278;22568;-68
2022/05/26 15:53:49;;;;;;;2.00;0.70;;;;;;;21.27;45.55;98862.08;219991;1274;24314;-67
2022/05/26 15:58:56;;;;;;;1.30;0.60;;;;;;;21.23;46.36;98865.34;220047;1274;24796;-67
2022/05/26 16:04:09;;;;;;;0.80;0.60;;;;;;;21.41;46.55;98865.71;220099;1274;27440;-67
2022/05/26 16:09:18;;;;;;;2.70;1.20;;;;;;;21.35;45.89;98866.21;220048;1274;23041;-66
2022/05/26 16:14:29;;;;;;;2.10;0.60;;;;;;;21.10;45.76;98864.54;219744;1274;25409;-68
2022/05/26 16:19:57;;;;;;;1.10;0.60;;;;;;;20.83;46.43;98864.10;219755;1274;25439;-67
2022/05/26 16:25:03;;;;;;;0.60;0.60;;;;;;;20.54;47.16;98867.45;219495;1275;22514;-67
2022/05/26 16:30:30;;;;;;;1.50;0.90;;;;;;;20.23;47.80;98866.26;219680;1274;22703;-68
2022/05/26 16:41:19;;;;;;;1.20;0.90;;;;;;;20.08;48.97;98871.45;219919;1275;22693;-68
2022/05/26 16:46:26;;;;;;;0.70;0.70;;;;;;;20.09;49.31;98872.11;219930;1274;22544;-68
2022/05/26 16:51:37;;;;;;;0.60;0.60;;;;;;;20.05;49.36;98872.08;219935;1274;25605;-67
2022/05/26 16:56:39;;;;;;;1.20;1.10;;;;;;;19.98;49.47;98874.27;220017;1277;23681;-67
2022/05/26 17:02:12;;;;;;;0.80;0.80;;;;;;;20.15;50.15;98879.55;219914;1274;22537;-67
2022/05/26 17:07:58;;;;;;;0.80;0.80;;;;;;;20.33;49.94;98878.23;220082;1274;22609;-67
2022/05/26 17:24:37;;;;;;;3.00;2.60;;;;;;;19.83;50.38;98865.37;219657;1275;25375;-66
2022/05/26 17:30:12;;;;;;;3.90;1.20;;;;;;;19.59;50.74;98864.79;219821;1274;22573;-68
2022/05/26 17:35:17;;;;;;;;;;;;;;;19.36;51.17;98865.91;219644;1274;24137;-67
2022/05/26 17:40:19;;;;;;;0.80;0.60;;;;;;;19.20;51.71;98858.73;219663;1275;23795;-67
2022/05/26 17:45:24;;;;;;;4.20;1.40;;;;;;;19.08;52.15;98855.81;219891;1274;25934;-68
2022/05/26 17:50:36;;;;;;;2.20;1.20;;;;;;;18.93;52.47;98859.27;220101;1274;23827;-69
2022/05/26 17:55:39;;;;;;;2.60;1.60;;;;;;;18.78;52.72;98859.16;219587;1275;22623;-67
2022/05/26 18:01:02;;;;;;;2.70;1.50;;;;;;;18.63;53.20;98855.20;220148;1274;22565;-67
2022/05/26 18:06:09;;;;;;;3.10;2.00;;;;;;;18.52;53.67;98856.60;219717;1274;22895;-67
2022/05/26 18:11:17;;;;;;;1.20;0.70;;;;;;;18.44;53.85;98853.48;220072;1274;23816;-68
2022/05/26 18:16:30;;;;;;;1.30;0.90;;;;;;;18.37;54.27;98855.11;219742;1274;25339;-68
2022/05/26 18:21:51;;;;;;;1.40;1.00;;;;;;;18.31;54.80;98849.94;219890;1274;26492;-67
2022/05/26 18:26:59;;;;;;;2.40;2.00;;;;;;;18.24;54.96;98856.16;219820;1274;22557;-67
2022/05/26 18:32:25;;;;;;;2.50;1.70;;;;;;;18.12;55.24;98857.70;220042;1274;25716;-67
2022/05/26 18:37:38;;;;;;;2.20;1.50;;;;;;;17.99;55.71;98864.69;220170;1274;22839;-67
2022/05/26 18:42:46;;;;;;;3.00;2.00;;;;;;;17.82;56.20;98868.05;219710;1277;24237;-68
2022/05/26 18:47:59;;;;;;;3.60;1.50;;;;;;;17.63;56.69;98869.16;220026;1274;22535;-68
2022/05/26 18:53:23;;;;;;;2.50;1.90;;;;;;;17.41;57.11;98873.98;219907;1274;22610;-67
2022/05/26 18:58:54;;;;;;;2.10;1.50;;;;;;;17.18;57.57;98873.58;219677;1274;25257;-67
2022/05/26 19:03:56;;;;;;;3.00;1.90;;;;;;;16.98;58.07;98878.04;219742;1274;25572;-69
2022/05/26 19:09:38;;;;;;;;;;;;;;;;;;;;;
2022/05/26 19:15:22;;;;;;;8.40;6.60;;;;;;;16.76;59.20;98886.58;219450;1277;25241;-68
2022/05/26 19:20:25;;;;;;;3.80;2.50;;;;;;;16.71;59.41;98892.23;220241;1274;22546;-68
2022/05/26 19:25:59;;;;;;;2.40;1.80;;;;;;;16.66;59.74;98891.53;220275;1274;25264;-68
2022/05/26 19:31:32;;;;;;;4.30;1.60;;;;;;;16.63;59.90;98888.07;219740;1274;26397;-68
2022/05/26 19:36:36;;;;;;;4.30;2.90;;;;;;;16.60;60.07;98889.80;219890;1273;22768;-68
2022/05/26 19:41:59;;;;;;;2.70;1.50;;;;;;;16.57;60.23;98896.34;219801;1274;24298;-68
2022/05/26 19:47:07;;;;;;;2.00;1.40;;;;;;;16.53;60.36;98897.23;220300;1274;22579;-67
2022/05/26 19:52:50;;;;;;;2.10;1.60;;;;;;;16.47;60.46;98902.04;219985;1274;22597;-67
2022/05/26 19:58:17;;;;;;;3.20;1.80;;;;;;;16.35;60.79;98906.27;220109;1274;22573;-67
2022/05/26 20:03:48;;;;;;;3.80;2.90;;;;;;;16.24;61.06;98909.82;219900;1274;25408;-68
2022/05/26 20:09:25;;;;;;;2.60;1.70;;;;;;;16.16;61.36;98908.95;219991;1274;24171;-68
2022/05/26 20:14:59;;;;;;;4.10;1.90;;;;;;;16.11;61.65;98914.46;219606;1274;24225;-67
2022/05/26 20:20:02;;;;;;;2.90;2.20;;;;;;;16.07;61.99;98908.05;219469;1274;25426;-68
2022/05/26 20:25:35;;;;;;;;;;;;;;;;;;;;;
2022/05/26 20:31:07;;;;;;;3.40;2.00;;;;;;;16.04;62.30;98913.02;220121;1274;22589;-67
2022/05/26 20:36:13;;;;;;;3.10;2.10;;;;;;;16.01;62.42;98912.48;219880;1274;25334;-68
2022/05/26 20:41:42;;;;;;;1.70;1.30;;;;;;;15.94;62.39;98910.80;219750;1274;22570;-67
2022/05/26 20:47:16;;;;;;;3.90;2.10;;;;;;;15.83;62.73;98912.56;219973;1274;25357;-67
2022/05/26 20:52:51;;;;;;;4.20;2.10;;;;;;;15.69;62.89;98913.13;219824;1274;24257;-66
2022/05/26 20:58:10;;;;;;;3.60;3.10;;;;;;;15.54;63.16;98911.70;219941;1274;22715;-68
2022/05/26 21:04:24;;;;;;;6.40;2.70;;;;;;;15.40;63.64;98909.76;220077;1274;22700;-68
2022/05/26 21:09:39;;;;;;;2.30;1.80;;;;;;;15.27;63.73;98909.15;219861;1274;24760;-68
2022/05/26 21:15:31;;;;;;;1.40;1.20;;;;;;;15.19;64.18;98907.67;219843;1274;22636;-67
2022/05/26 21:27:47;;;;;;;2.30;1.70;;;;;;;15.09;64.32;98905.66;219892;1274;22553;-68
2022/05/26 21:33:26;;;;;;;1.40;1.20;;;;;;;15.03;64.55;98904.98;219486;1275;23234;-67
2022/05/26 21:38:44;;;;;;;2.00;1.40;;;;;;;14.95;64.57;98901.31;219773;1274;23112;-67
2022/05/26 21:44:11;;;;;;;2.20;1.00;;;;;;;14.88;64.75;98901.42;219687;1274;25373;-68
2022/05/26 21:49:37;;;;;;;1.80;1.00;;;;;;;14.80;64.90;98906.54;219929;1273;25525;-69
2022/05/26 21:54:46;;;;;;;1.90;1.50;;;;;;;14.71;64.99;98910.13;219673;1273;24263;-68
2022/05/26 22:00:22;;;;;;;2.20;1.30;;;;;;;14.66;65.59;98910.18;219725;1274;22547;-66
2022/05/26 22:11:09;;;;;;;1.40;1.30;;;;;;;14.59;65.78;98908.83;219885;1274;24778;-67
2022/05/26 22:22:48;;;;;;;2.70;1.30;;;;;;;14.53;65.92;98900.55;219561;1274;22711;-67
2022/05/26 22:27:53;;;;;;;1.70;1.00;;;;;;;14.47;65.80;98894.41;219595;1274;22579;-66
2022/05/26 22:38:27;;;;;;;1.70;1.30;;;;;;;14.26;66.16;98889.65;219737;1274;22671;-70
2022/05/26 22:43:40;;;;;;;2.50;1.30;;;;;;;14.11;66.33;98885.82;219665;1274;22737;-67
2022/05/26 22:48:43;;;;;;;1.50;1.10;;;;;;;14.00;66.54;98884.02;220226;1273;22554;-67
2022/05/26 22:53:58;;;;;;;1.40;1.20;;;;;;;13.88;66.83;98881.94;219724;1274;22719;-67
2022/05/26 22:59:14;;;;;;;;;;;;;;;;;;;;;
2022/05/26 23:04:19;;;;;;;1.80;1.30;;;;;;;13.62;67.54;98877.34;219741;1274;26383;-68
2022/05/26 23:09:32;;;;;;;2.30;1.30;;;;;;;13.51;67.99;98877.33;219577;1273;22589;-68
2022/05/26 23:15:07;;;;;;;;;;;;;;;;;;;;;
2022/05/26 23:20:51;;;;;;;1.00;0.90;;;;;;;13.32;69.01;98869.91;219845;1273;24245;-67
2022/05/26 23:26:32;;;;;;;;;;;;;;;;;;;;;
2022/05/26 23:31:51;;;;;;;1.60;0.90;;;;;;;13.15;69.83;98875.09;219421;1273;25412;-68
2022/05/26 23:37:14;;;;;;;1.00;0.90;;;;;;;13.06;70.14;98872.48;219690;1273;22706;-68
2022/05/26 23:48:24;;;;;;;1.00;1.00;;;;;;;12.95;70.56;98870.51;219698;1274;24934;-68
2022/05/26 23:59:14;;;;;;;2.00;0.90;;;;;;;12.94;70.65;98867.30;220099;1274;25528;-67
